sensor_id;sensor_type;location;lat;lon;timestamp;P1;durP1;ratioP1;P2;durP2;ratioP2
76292;SDS011;65101;51.140;4.088;2022-12-24T00:01:00;16.58;;;4.65;;
76292;SDS011;65101;51.140;4.088;2022-12-24T00:03:26;11.65;;;4.30;;
76292;SDS011;65101;51.140;4.088;2022-12-24T00:05:52;13.45;;;4.63;;
76292;SDS011;65101;51.140;4.088;2022-12-24T00:08:17;10.63;;;4.00;;
76292;SDS011;65101;51.140;4.088;2022-12-24T00:10:43;18.33;;;4.57;;
76292;SDS011;65101;51.140;4.088;2022-12-24T00:13:09;13.40;;;4.68;;
76292;SDS011;65101;51.140;4.088;2022-12-24T00:15:34;12.32;;;4.45;;
76292;SDS011;65101;51.140;4.088;2022-12-24T00:18:00;11.65;;;3.95;;
76292;SDS011;65101;51.140;4.088;2022-12-24T00:20:26;18.40;;;5.45;;
76292;SDS011;65101;51.140;4.088;2022-12-24T00:22:51;12.68;;;4.75;;
76292;SDS011;65101;51.140;4.088;2022-12-24T00:25:17;14.57;;;5.40;;
76292;SDS011;65101;51.140;4.088;2022-12-24T00:27:43;18.75;;;6.80;;
76292;SDS011;65101;51.140;4.088;2022-12-24T00:30:08;16.70;;;6.18;;
76292;SDS011;65101;51.140;4.088;2022-12-24T00:32:34;19.60;;;6.15;;
76292;SDS011;65101;51.140;4.088;2022-12-24T00:35:01;17.25;;;5.65;;
76292;SDS011;65101;51.140;4.088;2022-12-24T00:37:27;17.52;;;5.60;;
76292;SDS011;65101;51.140;4.088;2022-12-24T00:39:53;19.33;;;6.28;;
76292;SDS011;65101;51.140;4.088;2022-12-24T00:42:18;18.60;;;6.72;;
76292;SDS011;65101;51.140;4.088;2022-12-24T00:44:44;18.55;;;6.20;;
76292;SDS011;65101;51.140;4.088;2022-12-24T00:47:10;18.77;;;5.40;;
76292;SDS011;65101;51.140;4.088;2022-12-24T00:49:35;19.70;;;6.75;;
76292;SDS011;65101;51.140;4.088;2022-12-24T00:52:01;19.95;;;6.50;;
76292;SDS011;65101;51.140;4.088;2022-12-24T00:54:27;20.02;;;7.05;;
76292;SDS011;65101;51.140;4.088;2022-12-24T00:56:53;17.77;;;6.20;;
76292;SDS011;65101;51.140;4.088;2022-12-24T00:59:18;17.13;;;6.22;;
76292;SDS011;65101;51.140;4.088;2022-12-24T01:01:44;18.50;;;6.60;;
76292;SDS011;65101;51.140;4.088;2022-12-24T01:04:10;17.02;;;6.57;;
76292;SDS011;65101;51.140;4.088;2022-12-24T01:06:53;19.83;;;6.32;;
76292;SDS011;65101;51.140;4.088;2022-12-24T01:09:20;19.35;;;6.22;;
76292;SDS011;65101;51.140;4.088;2022-12-24T01:11:46;16.63;;;5.82;;
76292;SDS011;65101;51.140;4.088;2022-12-24T01:14:11;18.70;;;6.35;;
76292;SDS011;65101;51.140;4.088;2022-12-24T01:16:37;14.73;;;5.65;;
76292;SDS011;65101;51.140;4.088;2022-12-24T01:19:03;15.75;;;6.07;;
76292;SDS011;65101;51.140;4.088;2022-12-24T01:21:28;18.67;;;6.55;;
76292;SDS011;65101;51.140;4.088;2022-12-24T01:23:54;16.98;;;6.15;;
76292;SDS011;65101;51.140;4.088;2022-12-24T01:26:20;17.90;;;5.65;;
76292;SDS011;65101;51.140;4.088;2022-12-24T01:28:45;17.58;;;5.63;;
76292;SDS011;65101;51.140;4.088;2022-12-24T01:31:14;17.30;;;6.22;;
76292;SDS011;65101;51.140;4.088;2022-12-24T01:33:42;13.70;;;5.63;;
76292;SDS011;65101;51.140;4.088;2022-12-24T01:36:08;15.90;;;5.35;;
76292;SDS011;65101;51.140;4.088;2022-12-24T01:38:35;16.83;;;5.88;;
76292;SDS011;65101;51.140;4.088;2022-12-24T01:41:00;13.23;;;4.80;;
76292;SDS011;65101;51.140;4.088;2022-12-24T01:43:45;16.17;;;5.40;;
76292;SDS011;65101;51.140;4.088;2022-12-24T01:46:18;14.80;;;5.55;;
76292;SDS011;65101;51.140;4.088;2022-12-24T01:48:51;15.23;;;5.60;;
76292;SDS011;65101;51.140;4.088;2022-12-24T01:51:39;15.27;;;5.32;;
76292;SDS011;65101;51.140;4.088;2022-12-24T01:54:08;14.50;;;4.80;;
76292;SDS011;65101;51.140;4.088;2022-12-24T01:56:36;16.42;;;6.30;;
76292;SDS011;65101;51.140;4.088;2022-12-24T01:59:07;19.00;;;6.13;;
76292;SDS011;65101;51.140;4.088;2022-12-24T02:01:36;15.98;;;5.50;;
76292;SDS011;65101;51.140;4.088;2022-12-24T02:04:04;15.02;;;5.22;;
76292;SDS011;65101;51.140;4.088;2022-12-24T02:06:36;13.77;;;4.85;;
76292;SDS011;65101;51.140;4.088;2022-12-24T02:09:02;13.52;;;5.28;;
76292;SDS011;65101;51.140;4.088;2022-12-24T02:11:27;13.30;;;5.03;;
76292;SDS011;65101;51.140;4.088;2022-12-24T02:13:55;13.93;;;4.78;;
76292;SDS011;65101;51.140;4.088;2022-12-24T02:24:01;12.65;;;4.60;;
76292;SDS011;65101;51.140;4.088;2022-12-24T02:32:27;17.80;;;4.95;;
76292;SDS011;65101;51.140;4.088;2022-12-24T02:35:11;12.35;;;4.53;;
76292;SDS011;65101;51.140;4.088;2022-12-24T02:37:51;12.40;;;4.38;;
76292;SDS011;65101;51.140;4.088;2022-12-24T02:40:33;15.13;;;4.93;;
76292;SDS011;65101;51.140;4.088;2022-12-24T02:43:09;13.55;;;5.07;;
76292;SDS011;65101;51.140;4.088;2022-12-24T02:45:41;11.02;;;4.38;;
76292;SDS011;65101;51.140;4.088;2022-12-24T02:48:09;12.67;;;4.63;;
76292;SDS011;65101;51.140;4.088;2022-12-24T02:50:38;12.27;;;4.40;;
76292;SDS011;65101;51.140;4.088;2022-12-24T02:53:05;11.75;;;4.43;;
76292;SDS011;65101;51.140;4.088;2022-12-24T02:55:44;11.40;;;4.32;;
76292;SDS011;65101;51.140;4.088;2022-12-24T03:07:14;12.73;;;4.18;;
76292;SDS011;65101;51.140;4.088;2022-12-24T03:12:43;10.13;;;3.90;;
76292;SDS011;65101;51.140;4.088;2022-12-24T03:15:10;10.55;;;3.75;;
76292;SDS011;65101;51.140;4.088;2022-12-24T03:17:39;12.68;;;4.05;;
76292;SDS011;65101;51.140;4.088;2022-12-24T03:20:07;12.05;;;4.72;;
76292;SDS011;65101;51.140;4.088;2022-12-24T03:22:35;11.30;;;3.60;;
76292;SDS011;65101;51.140;4.088;2022-12-24T03:25:01;11.65;;;4.07;;
76292;SDS011;65101;51.140;4.088;2022-12-24T03:27:28;11.70;;;4.07;;
76292;SDS011;65101;51.140;4.088;2022-12-24T03:29:56;11.18;;;3.90;;
76292;SDS011;65101;51.140;4.088;2022-12-24T03:32:30;11.48;;;3.83;;
76292;SDS011;65101;51.140;4.088;2022-12-24T03:34:56;9.43;;;3.88;;
76292;SDS011;65101;51.140;4.088;2022-12-24T03:37:22;11.75;;;4.50;;
76292;SDS011;65101;51.140;4.088;2022-12-24T03:39:49;10.73;;;3.72;;
76292;SDS011;65101;51.140;4.088;2022-12-24T03:42:15;11.75;;;4.30;;
76292;SDS011;65101;51.140;4.088;2022-12-24T03:44:40;9.98;;;3.40;;
76292;SDS011;65101;51.140;4.088;2022-12-24T03:47:06;11.00;;;3.90;;
76292;SDS011;65101;51.140;4.088;2022-12-24T03:49:32;13.15;;;4.10;;
76292;SDS011;65101;51.140;4.088;2022-12-24T03:51:57;11.38;;;4.07;;
76292;SDS011;65101;51.140;4.088;2022-12-24T03:54:23;9.93;;;3.50;;
76292;SDS011;65101;51.140;4.088;2022-12-24T03:56:48;11.15;;;3.42;;
76292;SDS011;65101;51.140;4.088;2022-12-24T03:59:14;11.60;;;4.03;;
76292;SDS011;65101;51.140;4.088;2022-12-24T04:01:40;12.98;;;4.43;;
76292;SDS011;65101;51.140;4.088;2022-12-24T04:04:05;9.38;;;3.60;;
76292;SDS011;65101;51.140;4.088;2022-12-24T04:06:31;10.32;;;3.40;;
76292;SDS011;65101;51.140;4.088;2022-12-24T04:08:56;11.20;;;3.70;;
76292;SDS011;65101;51.140;4.088;2022-12-24T04:11:25;12.18;;;3.85;;
76292;SDS011;65101;51.140;4.088;2022-12-24T04:13:51;10.55;;;4.22;;
76292;SDS011;65101;51.140;4.088;2022-12-24T04:16:17;9.75;;;3.50;;
76292;SDS011;65101;51.140;4.088;2022-12-24T04:18:43;10.85;;;3.80;;
76292;SDS011;65101;51.140;4.088;2022-12-24T04:21:09;11.77;;;4.03;;
76292;SDS011;65101;51.140;4.088;2022-12-24T04:23:35;10.23;;;3.70;;
76292;SDS011;65101;51.140;4.088;2022-12-24T04:26:03;9.57;;;3.45;;
76292;SDS011;65101;51.140;4.088;2022-12-24T04:28:30;10.10;;;3.25;;
76292;SDS011;65101;51.140;4.088;2022-12-24T04:30:57;10.65;;;3.83;;
76292;SDS011;65101;51.140;4.088;2022-12-24T04:33:24;8.13;;;2.92;;
76292;SDS011;65101;51.140;4.088;2022-12-24T04:35:50;10.95;;;3.88;;
76292;SDS011;65101;51.140;4.088;2022-12-24T04:38:16;9.90;;;3.65;;
76292;SDS011;65101;51.140;4.088;2022-12-24T04:40:41;9.30;;;3.50;;
76292;SDS011;65101;51.140;4.088;2022-12-24T04:43:07;8.70;;;3.58;;
76292;SDS011;65101;51.140;4.088;2022-12-24T04:45:33;11.27;;;3.90;;
76292;SDS011;65101;51.140;4.088;2022-12-24T04:47:58;13.45;;;4.55;;
76292;SDS011;65101;51.140;4.088;2022-12-24T04:50:24;10.13;;;3.35;;
76292;SDS011;65101;51.140;4.088;2022-12-24T04:52:50;11.52;;;3.30;;
76292;SDS011;65101;51.140;4.088;2022-12-24T04:55:15;12.45;;;3.97;;
76292;SDS011;65101;51.140;4.088;2022-12-24T04:57:41;11.40;;;3.65;;
76292;SDS011;65101;51.140;4.088;2022-12-24T05:00:07;9.85;;;3.45;;
76292;SDS011;65101;51.140;4.088;2022-12-24T05:02:33;11.50;;;3.45;;
76292;SDS011;65101;51.140;4.088;2022-12-24T05:04:59;11.00;;;3.88;;
76292;SDS011;65101;51.140;4.088;2022-12-24T05:07:24;10.15;;;3.42;;
76292;SDS011;65101;51.140;4.088;2022-12-24T05:09:50;11.10;;;3.35;;
76292;SDS011;65101;51.140;4.088;2022-12-24T05:12:15;9.55;;;3.25;;
76292;SDS011;65101;51.140;4.088;2022-12-24T05:14:41;10.40;;;3.40;;
76292;SDS011;65101;51.140;4.088;2022-12-24T05:17:07;10.45;;;3.72;;
76292;SDS011;65101;51.140;4.088;2022-12-24T05:19:32;9.43;;;2.92;;
76292;SDS011;65101;51.140;4.088;2022-12-24T05:21:58;9.13;;;3.35;;
76292;SDS011;65101;51.140;4.088;2022-12-24T05:24:43;10.93;;;4.00;;
76292;SDS011;65101;51.140;4.088;2022-12-24T05:27:27;9.90;;;3.22;;
76292;SDS011;65101;51.140;4.088;2022-12-24T05:29:53;9.85;;;3.35;;
76292;SDS011;65101;51.140;4.088;2022-12-24T05:32:19;9.98;;;3.78;;
76292;SDS011;65101;51.140;4.088;2022-12-24T05:34:44;8.57;;;2.90;;
76292;SDS011;65101;51.140;4.088;2022-12-24T05:37:10;12.07;;;3.53;;
76292;SDS011;65101;51.140;4.088;2022-12-24T05:39:35;11.00;;;3.40;;
76292;SDS011;65101;51.140;4.088;2022-12-24T05:42:01;6.55;;;3.13;;
76292;SDS011;65101;51.140;4.088;2022-12-24T05:44:27;8.68;;;3.55;;
76292;SDS011;65101;51.140;4.088;2022-12-24T05:46:52;8.77;;;3.75;;
76292;SDS011;65101;51.140;4.088;2022-12-24T05:49:18;11.63;;;3.92;;
76292;SDS011;65101;51.140;4.088;2022-12-24T05:51:44;11.57;;;3.55;;
76292;SDS011;65101;51.140;4.088;2022-12-24T05:54:09;10.68;;;3.00;;
76292;SDS011;65101;51.140;4.088;2022-12-24T05:56:35;8.70;;;3.30;;
76292;SDS011;65101;51.140;4.088;2022-12-24T05:59:01;10.68;;;3.25;;
76292;SDS011;65101;51.140;4.088;2022-12-24T06:01:27;11.38;;;3.72;;
76292;SDS011;65101;51.140;4.088;2022-12-24T06:03:52;9.20;;;3.13;;
76292;SDS011;65101;51.140;4.088;2022-12-24T06:06:19;8.20;;;3.30;;
76292;SDS011;65101;51.140;4.088;2022-12-24T06:08:47;7.45;;;2.95;;
76292;SDS011;65101;51.140;4.088;2022-12-24T06:11:13;9.73;;;2.85;;
76292;SDS011;65101;51.140;4.088;2022-12-24T06:13:41;7.68;;;2.63;;
76292;SDS011;65101;51.140;4.088;2022-12-24T06:16:09;9.70;;;3.17;;
76292;SDS011;65101;51.140;4.088;2022-12-24T06:18:36;12.30;;;3.40;;
76292;SDS011;65101;51.140;4.088;2022-12-24T06:21:02;8.73;;;3.20;;
76292;SDS011;65101;51.140;4.088;2022-12-24T06:23:30;9.15;;;3.10;;
76292;SDS011;65101;51.140;4.088;2022-12-24T06:25:57;9.10;;;3.33;;
76292;SDS011;65101;51.140;4.088;2022-12-24T06:28:25;8.68;;;3.08;;
76292;SDS011;65101;51.140;4.088;2022-12-24T06:30:55;9.25;;;3.33;;
76292;SDS011;65101;51.140;4.088;2022-12-24T06:33:21;10.63;;;3.42;;
76292;SDS011;65101;51.140;4.088;2022-12-24T06:35:46;12.43;;;3.65;;
76292;SDS011;65101;51.140;4.088;2022-12-24T06:38:13;11.05;;;3.45;;
76292;SDS011;65101;51.140;4.088;2022-12-24T06:40:40;9.35;;;3.85;;
76292;SDS011;65101;51.140;4.088;2022-12-24T06:43:07;8.13;;;3.30;;
76292;SDS011;65101;51.140;4.088;2022-12-24T06:45:33;9.30;;;2.80;;
76292;SDS011;65101;51.140;4.088;2022-12-24T06:47:59;7.65;;;3.00;;
76292;SDS011;65101;51.140;4.088;2022-12-24T06:50:25;8.65;;;3.42;;
76292;SDS011;65101;51.140;4.088;2022-12-24T06:52:51;12.27;;;4.38;;
76292;SDS011;65101;51.140;4.088;2022-12-24T06:55:17;7.70;;;2.67;;
76292;SDS011;65101;51.140;4.088;2022-12-24T06:57:43;10.88;;;3.83;;
76292;SDS011;65101;51.140;4.088;2022-12-24T07:00:09;10.00;;;4.00;;
76292;SDS011;65101;51.140;4.088;2022-12-24T07:02:39;11.15;;;3.50;;
76292;SDS011;65101;51.140;4.088;2022-12-24T07:05:09;7.65;;;2.75;;
76292;SDS011;65101;51.140;4.088;2022-12-24T07:07:36;9.18;;;3.05;;
76292;SDS011;65101;51.140;4.088;2022-12-24T07:10:03;8.30;;;3.20;;
76292;SDS011;65101;51.140;4.088;2022-12-24T07:12:29;6.95;;;2.45;;
76292;SDS011;65101;51.140;4.088;2022-12-24T07:14:55;9.27;;;3.15;;
76292;SDS011;65101;51.140;4.088;2022-12-24T07:17:20;12.30;;;3.72;;
76292;SDS011;65101;51.140;4.088;2022-12-24T07:19:46;6.55;;;3.05;;
76292;SDS011;65101;51.140;4.088;2022-12-24T07:22:11;8.77;;;3.13;;
76292;SDS011;65101;51.140;4.088;2022-12-24T07:24:37;8.70;;;2.90;;
76292;SDS011;65101;51.140;4.088;2022-12-24T07:27:02;7.05;;;2.70;;
76292;SDS011;65101;51.140;4.088;2022-12-24T07:29:28;10.68;;;3.45;;
76292;SDS011;65101;51.140;4.088;2022-12-24T07:31:54;8.80;;;3.08;;
76292;SDS011;65101;51.140;4.088;2022-12-24T07:34:19;8.95;;;3.47;;
76292;SDS011;65101;51.140;4.088;2022-12-24T07:36:45;9.38;;;3.03;;
76292;SDS011;65101;51.140;4.088;2022-12-24T07:39:11;11.15;;;3.30;;
76292;SDS011;65101;51.140;4.088;2022-12-24T07:41:36;8.80;;;2.90;;
76292;SDS011;65101;51.140;4.088;2022-12-24T07:44:02;6.25;;;2.60;;
76292;SDS011;65101;51.140;4.088;2022-12-24T07:46:28;8.10;;;2.80;;
76292;SDS011;65101;51.140;4.088;2022-12-24T07:48:53;6.50;;;2.78;;
76292;SDS011;65101;51.140;4.088;2022-12-24T07:51:19;8.23;;;2.95;;
76292;SDS011;65101;51.140;4.088;2022-12-24T07:53:44;7.68;;;3.05;;
76292;SDS011;65101;51.140;4.088;2022-12-24T07:56:14;7.10;;;2.50;;
76292;SDS011;65101;51.140;4.088;2022-12-24T07:58:40;6.60;;;2.97;;
76292;SDS011;65101;51.140;4.088;2022-12-24T08:01:07;6.93;;;2.58;;
76292;SDS011;65101;51.140;4.088;2022-12-24T08:03:33;7.03;;;2.70;;
76292;SDS011;65101;51.140;4.088;2022-12-24T08:05:59;7.57;;;2.78;;
76292;SDS011;65101;51.140;4.088;2022-12-24T08:08:25;7.20;;;2.45;;
76292;SDS011;65101;51.140;4.088;2022-12-24T08:10:51;7.65;;;2.47;;
76292;SDS011;65101;51.140;4.088;2022-12-24T08:13:16;6.25;;;2.50;;
76292;SDS011;65101;51.140;4.088;2022-12-24T08:15:42;7.00;;;2.55;;
76292;SDS011;65101;51.140;4.088;2022-12-24T08:18:08;9.18;;;2.78;;
76292;SDS011;65101;51.140;4.088;2022-12-24T08:20:36;8.70;;;2.97;;
76292;SDS011;65101;51.140;4.088;2022-12-24T08:23:06;7.78;;;2.97;;
76292;SDS011;65101;51.140;4.088;2022-12-24T08:25:32;7.78;;;2.97;;
76292;SDS011;65101;51.140;4.088;2022-12-24T08:27:58;9.50;;;3.03;;
76292;SDS011;65101;51.140;4.088;2022-12-24T08:30:24;6.50;;;2.25;;
76292;SDS011;65101;51.140;4.088;2022-12-24T08:32:49;8.93;;;2.60;;
76292;SDS011;65101;51.140;4.088;2022-12-24T08:35:15;8.90;;;2.67;;
76292;SDS011;65101;51.140;4.088;2022-12-24T08:37:41;6.43;;;2.33;;
76292;SDS011;65101;51.140;4.088;2022-12-24T08:40:07;10.13;;;2.50;;
76292;SDS011;65101;51.140;4.088;2022-12-24T08:42:33;10.82;;;2.50;;
76292;SDS011;65101;51.140;4.088;2022-12-24T08:44:59;5.55;;;2.50;;
76292;SDS011;65101;51.140;4.088;2022-12-24T08:47:24;7.15;;;2.83;;
76292;SDS011;65101;51.140;4.088;2022-12-24T08:49:51;6.07;;;2.72;;
76292;SDS011;65101;51.140;4.088;2022-12-24T08:52:16;5.85;;;2.35;;
76292;SDS011;65101;51.140;4.088;2022-12-24T08:54:42;5.13;;;2.05;;
76292;SDS011;65101;51.140;4.088;2022-12-24T08:57:07;8.43;;;2.38;;
76292;SDS011;65101;51.140;4.088;2022-12-24T08:59:33;6.97;;;2.13;;
76292;SDS011;65101;51.140;4.088;2022-12-24T09:01:58;7.07;;;2.03;;
76292;SDS011;65101;51.140;4.088;2022-12-24T09:04:25;6.38;;;2.40;;
76292;SDS011;65101;51.140;4.088;2022-12-24T09:06:51;7.22;;;2.63;;
76292;SDS011;65101;51.140;4.088;2022-12-24T09:09:16;7.88;;;2.00;;
76292;SDS011;65101;51.140;4.088;2022-12-24T09:11:42;5.20;;;2.03;;
76292;SDS011;65101;51.140;4.088;2022-12-24T09:14:09;9.43;;;2.90;;
76292;SDS011;65101;51.140;4.088;2022-12-24T09:16:35;7.03;;;2.65;;
76292;SDS011;65101;51.140;4.088;2022-12-24T09:19:00;14.65;;;2.67;;
76292;SDS011;65101;51.140;4.088;2022-12-24T09:21:26;7.40;;;2.85;;
76292;SDS011;65101;51.140;4.088;2022-12-24T09:23:51;10.32;;;3.30;;
76292;SDS011;65101;51.140;4.088;2022-12-24T09:26:18;8.13;;;2.92;;
76292;SDS011;65101;51.140;4.088;2022-12-24T09:28:49;7.75;;;2.35;;
76292;SDS011;65101;51.140;4.088;2022-12-24T09:31:16;6.30;;;2.80;;
76292;SDS011;65101;51.140;4.088;2022-12-24T09:33:44;9.05;;;2.90;;
76292;SDS011;65101;51.140;4.088;2022-12-24T09:36:11;7.40;;;2.28;;
76292;SDS011;65101;51.140;4.088;2022-12-24T09:38:37;11.20;;;3.08;;
76292;SDS011;65101;51.140;4.088;2022-12-24T09:41:11;9.68;;;2.60;;
76292;SDS011;65101;51.140;4.088;2022-12-24T09:43:43;6.78;;;2.50;;
76292;SDS011;65101;51.140;4.088;2022-12-24T09:46:16;7.47;;;2.60;;
76292;SDS011;65101;51.140;4.088;2022-12-24T09:48:48;11.90;;;2.90;;
76292;SDS011;65101;51.140;4.088;2022-12-24T09:52:21;11.50;;;2.97;;
76292;SDS011;65101;51.140;4.088;2022-12-24T09:54:29;6.55;;;2.60;;
76292;SDS011;65101;51.140;4.088;2022-12-24T09:57:00;13.88;;;3.25;;
76292;SDS011;65101;51.140;4.088;2022-12-24T09:59:44;7.05;;;2.63;;
76292;SDS011;65101;51.140;4.088;2022-12-24T10:02:13;7.57;;;2.60;;
76292;SDS011;65101;51.140;4.088;2022-12-24T10:04:41;7.30;;;2.90;;
76292;SDS011;65101;51.140;4.088;2022-12-24T10:09:52;6.28;;;2.65;;
76292;SDS011;65101;51.140;4.088;2022-12-24T10:23:34;8.27;;;2.75;;
76292;SDS011;65101;51.140;4.088;2022-12-24T10:26:06;13.13;;;2.40;;
76292;SDS011;65101;51.140;4.088;2022-12-24T10:28:55;4.68;;;2.63;;
76292;SDS011;65101;51.140;4.088;2022-12-24T10:31:32;6.43;;;2.63;;
76292;SDS011;65101;51.140;4.088;2022-12-24T10:34:01;6.70;;;2.05;;
76292;SDS011;65101;51.140;4.088;2022-12-24T10:36:31;9.15;;;2.53;;
76292;SDS011;65101;51.140;4.088;2022-12-24T10:38:56;6.72;;;2.38;;
76292;SDS011;65101;51.140;4.088;2022-12-24T10:41:26;6.15;;;2.38;;
76292;SDS011;65101;51.140;4.088;2022-12-24T10:43:53;8.93;;;2.88;;
76292;SDS011;65101;51.140;4.088;2022-12-24T10:46:21;8.10;;;2.63;;
76292;SDS011;65101;51.140;4.088;2022-12-24T10:49:05;10.45;;;2.53;;
76292;SDS011;65101;51.140;4.088;2022-12-24T10:51:39;8.15;;;3.03;;
76292;SDS011;65101;51.140;4.088;2022-12-24T10:54:19;7.47;;;2.50;;
76292;SDS011;65101;51.140;4.088;2022-12-24T10:56:50;8.02;;;2.35;;
76292;SDS011;65101;51.140;4.088;2022-12-24T10:59:23;7.43;;;2.38;;
76292;SDS011;65101;51.140;4.088;2022-12-24T11:02:00;9.00;;;2.80;;
76292;SDS011;65101;51.140;4.088;2022-12-24T11:04:30;7.93;;;2.55;;
76292;SDS011;65101;51.140;4.088;2022-12-24T11:07:00;8.57;;;2.58;;
76292;SDS011;65101;51.140;4.088;2022-12-24T11:09:30;4.95;;;2.13;;
76292;SDS011;65101;51.140;4.088;2022-12-24T11:11:58;7.68;;;2.55;;
76292;SDS011;65101;51.140;4.088;2022-12-24T11:14:25;8.70;;;2.53;;
76292;SDS011;65101;51.140;4.088;2022-12-24T11:16:57;8.93;;;2.90;;
76292;SDS011;65101;51.140;4.088;2022-12-24T11:19:28;7.32;;;2.50;;
76292;SDS011;65101;51.140;4.088;2022-12-24T11:22:03;7.25;;;2.55;;
76292;SDS011;65101;51.140;4.088;2022-12-24T11:24:34;6.80;;;2.40;;
76292;SDS011;65101;51.140;4.088;2022-12-24T11:27:21;9.35;;;3.13;;
76292;SDS011;65101;51.140;4.088;2022-12-24T11:32:43;6.55;;;2.47;;
76292;SDS011;65101;51.140;4.088;2022-12-24T11:35:22;8.73;;;2.92;;
76292;SDS011;65101;51.140;4.088;2022-12-24T11:40:31;6.45;;;3.00;;
76292;SDS011;65101;51.140;4.088;2022-12-24T11:42:59;9.43;;;4.07;;
76292;SDS011;65101;51.140;4.088;2022-12-24T11:45:26;7.35;;;3.97;;
76292;SDS011;65101;51.140;4.088;2022-12-24T11:47:54;8.80;;;4.95;;
76292;SDS011;65101;51.140;4.088;2022-12-24T11:52:58;10.93;;;4.88;;
76292;SDS011;65101;51.140;4.088;2022-12-24T11:58:01;9.10;;;5.70;;
76292;SDS011;65101;51.140;4.088;2022-12-24T12:00:28;9.95;;;5.82;;
76292;SDS011;65101;51.140;4.088;2022-12-24T12:02:55;10.27;;;5.40;;
76292;SDS011;65101;51.140;4.088;2022-12-24T12:05:25;9.30;;;5.47;;
76292;SDS011;65101;51.140;4.088;2022-12-24T12:08:07;13.63;;;6.20;;
76292;SDS011;65101;51.140;4.088;2022-12-24T12:10:42;10.40;;;5.45;;
76292;SDS011;65101;51.140;4.088;2022-12-24T12:13:13;12.55;;;5.90;;
76292;SDS011;65101;51.140;4.088;2022-12-24T12:15:57;10.05;;;6.18;;
76292;SDS011;65101;51.140;4.088;2022-12-24T12:18:32;8.77;;;5.80;;
76292;SDS011;65101;51.140;4.088;2022-12-24T12:21:05;8.80;;;5.32;;
76292;SDS011;65101;51.140;4.088;2022-12-24T12:23:36;9.82;;;5.53;;
76292;SDS011;65101;51.140;4.088;2022-12-24T12:26:09;9.23;;;5.63;;
76292;SDS011;65101;51.140;4.088;2022-12-24T12:28:56;9.77;;;5.07;;
76292;SDS011;65101;51.140;4.088;2022-12-24T12:31:48;13.77;;;5.57;;
76292;SDS011;65101;51.140;4.088;2022-12-24T12:37:01;11.60;;;5.50;;
76292;SDS011;65101;51.140;4.088;2022-12-24T12:39:36;8.73;;;5.15;;
76292;SDS011;65101;51.140;4.088;2022-12-24T12:42:15;10.43;;;4.75;;
76292;SDS011;65101;51.140;4.088;2022-12-24T12:50:39;7.75;;;4.63;;
76292;SDS011;65101;51.140;4.088;2022-12-24T12:53:34;7.90;;;4.72;;
76292;SDS011;65101;51.140;4.088;2022-12-24T12:58:48;12.15;;;4.13;;
76292;SDS011;65101;51.140;4.088;2022-12-24T13:01:21;6.13;;;3.70;;
76292;SDS011;65101;51.140;4.088;2022-12-24T13:12:03;8.45;;;3.75;;
76292;SDS011;65101;51.140;4.088;2022-12-24T13:15:03;10.13;;;3.90;;
76292;SDS011;65101;51.140;4.088;2022-12-24T13:20:39;9.40;;;3.92;;
76292;SDS011;65101;51.140;4.088;2022-12-24T13:23:20;8.18;;;3.80;;
76292;SDS011;65101;51.140;4.088;2022-12-24T13:25:48;7.13;;;3.72;;
76292;SDS011;65101;51.140;4.088;2022-12-24T13:30:45;15.30;;;4.35;;
76292;SDS011;65101;51.140;4.088;2022-12-24T13:33:13;15.73;;;4.88;;
76292;SDS011;65101;51.140;4.088;2022-12-24T13:38:46;12.45;;;4.43;;
76292;SDS011;65101;51.140;4.088;2022-12-24T13:46:53;13.70;;;4.38;;
76292;SDS011;65101;51.140;4.088;2022-12-24T13:49:41;13.60;;;4.55;;
76292;SDS011;65101;51.140;4.088;2022-12-24T13:54:47;11.25;;;4.07;;
76292;SDS011;65101;51.140;4.088;2022-12-24T13:57:42;10.60;;;4.13;;
76292;SDS011;65101;51.140;4.088;2022-12-24T14:02:56;8.90;;;3.60;;
76292;SDS011;65101;51.140;4.088;2022-12-24T14:05:30;7.20;;;3.50;;
76292;SDS011;65101;51.140;4.088;2022-12-24T14:08:12;9.52;;;3.33;;
76292;SDS011;65101;51.140;4.088;2022-12-24T14:11:02;8.27;;;3.50;;
76292;SDS011;65101;51.140;4.088;2022-12-24T14:16:04;11.70;;;3.55;;
76292;SDS011;65101;51.140;4.088;2022-12-24T14:18:32;12.05;;;3.40;;
76292;SDS011;65101;51.140;4.088;2022-12-24T14:21:02;9.23;;;3.38;;
76292;SDS011;65101;51.140;4.088;2022-12-24T14:23:35;11.40;;;3.00;;
76292;SDS011;65101;51.140;4.088;2022-12-24T14:26:15;13.82;;;4.13;;
76292;SDS011;65101;51.140;4.088;2022-12-24T14:28:54;6.57;;;2.42;;
76292;SDS011;65101;51.140;4.088;2022-12-24T14:31:23;7.50;;;2.85;;
76292;SDS011;65101;51.140;4.088;2022-12-24T14:33:49;11.50;;;3.17;;
76292;SDS011;65101;51.140;4.088;2022-12-24T14:36:17;11.68;;;3.20;;
76292;SDS011;65101;51.140;4.088;2022-12-24T14:38:47;6.28;;;2.50;;
76292;SDS011;65101;51.140;4.088;2022-12-24T14:41:35;10.57;;;3.35;;
76292;SDS011;65101;51.140;4.088;2022-12-24T14:44:19;8.13;;;2.88;;
76292;SDS011;65101;51.140;4.088;2022-12-24T14:53:06;7.70;;;2.85;;
76292;SDS011;65101;51.140;4.088;2022-12-24T14:55:50;7.35;;;2.80;;
76292;SDS011;65101;51.140;4.088;2022-12-24T15:01:02;7.68;;;2.70;;
76292;SDS011;65101;51.140;4.088;2022-12-24T15:04:04;7.30;;;2.83;;
76292;SDS011;65101;51.140;4.088;2022-12-24T15:06:40;9.10;;;3.50;;
76292;SDS011;65101;51.140;4.088;2022-12-24T15:11:51;7.65;;;2.63;;
76292;SDS011;65101;51.140;4.088;2022-12-24T15:14:22;8.10;;;3.10;;
76292;SDS011;65101;51.140;4.088;2022-12-24T15:16:53;9.83;;;3.30;;
76292;SDS011;65101;51.140;4.088;2022-12-24T15:19:33;9.02;;;2.92;;
76292;SDS011;65101;51.140;4.088;2022-12-24T15:22:02;6.60;;;2.80;;
76292;SDS011;65101;51.140;4.088;2022-12-24T15:24:35;6.50;;;2.67;;
76292;SDS011;65101;51.140;4.088;2022-12-24T15:27:13;6.10;;;2.50;;
76292;SDS011;65101;51.140;4.088;2022-12-24T15:29:44;6.65;;;2.45;;
76292;SDS011;65101;51.140;4.088;2022-12-24T15:32:13;8.45;;;2.97;;
76292;SDS011;65101;51.140;4.088;2022-12-24T15:34:41;12.05;;;3.63;;
76292;SDS011;65101;51.140;4.088;2022-12-24T15:39:37;10.20;;;3.45;;
76292;SDS011;65101;51.140;4.088;2022-12-24T15:42:04;9.30;;;3.00;;
76292;SDS011;65101;51.140;4.088;2022-12-24T15:44:46;8.05;;;3.13;;
76292;SDS011;65101;51.140;4.088;2022-12-24T15:47:20;8.55;;;2.60;;
76292;SDS011;65101;51.140;4.088;2022-12-24T15:50:02;6.88;;;2.83;;
76292;SDS011;65101;51.140;4.088;2022-12-24T15:52:48;5.78;;;2.47;;
76292;SDS011;65101;51.140;4.088;2022-12-24T15:55:24;9.68;;;2.80;;
76292;SDS011;65101;51.140;4.088;2022-12-24T15:57:59;6.15;;;2.20;;
76292;SDS011;65101;51.140;4.088;2022-12-24T16:00:27;5.82;;;2.58;;
76292;SDS011;65101;51.140;4.088;2022-12-24T16:03:16;7.63;;;2.28;;
76292;SDS011;65101;51.140;4.088;2022-12-24T16:05:42;10.20;;;3.22;;
76292;SDS011;65101;51.140;4.088;2022-12-24T16:10:42;7.88;;;2.72;;
76292;SDS011;65101;51.140;4.088;2022-12-24T16:13:17;5.68;;;2.55;;
76292;SDS011;65101;51.140;4.088;2022-12-24T16:15:51;5.47;;;2.10;;
76292;SDS011;65101;51.140;4.088;2022-12-24T16:18:24;5.03;;;2.22;;
76292;SDS011;65101;51.140;4.088;2022-12-24T16:20:52;8.27;;;2.53;;
76292;SDS011;65101;51.140;4.088;2022-12-24T16:23:20;9.90;;;3.33;;
76292;SDS011;65101;51.140;4.088;2022-12-24T16:25:48;6.13;;;2.53;;
76292;SDS011;65101;51.140;4.088;2022-12-24T16:28:15;8.05;;;3.00;;
76292;SDS011;65101;51.140;4.088;2022-12-24T16:30:42;7.18;;;2.92;;
76292;SDS011;65101;51.140;4.088;2022-12-24T16:33:13;9.43;;;3.35;;
76292;SDS011;65101;51.140;4.088;2022-12-24T16:35:40;7.90;;;3.00;;
76292;SDS011;65101;51.140;4.088;2022-12-24T16:38:06;11.25;;;3.75;;
76292;SDS011;65101;51.140;4.088;2022-12-24T16:40:32;10.18;;;3.67;;
76292;SDS011;65101;51.140;4.088;2022-12-24T16:42:57;7.95;;;3.28;;